createdAt,value
2023-03-04T00:02:17.813Z,0.48
2023-03-04T00:04:44.450Z,0.54
2023-03-04T00:07:11.187Z,0.57
2023-03-04T00:09:37.834Z,0.57
2023-03-04T00:12:04.855Z,0.60
2023-03-04T00:14:31.497Z,0.62
2023-03-04T00:16:58.136Z,0.63
2023-03-04T00:19:24.742Z,0.64
2023-03-04T00:21:51.429Z,0.62
2023-03-04T00:24:18.002Z,0.58
2023-03-04T00:26:44.670Z,0.52
2023-03-04T00:29:11.234Z,0.54
2023-03-04T00:31:38.022Z,0.55
2023-03-04T00:34:04.678Z,0.58
2023-03-04T00:36:31.336Z,0.55
2023-03-04T00:38:57.945Z,0.58
2023-03-04T00:41:24.618Z,0.59
2023-03-04T00:43:51.505Z,0.63
2023-03-04T00:46:18.172Z,0.63
2023-03-04T00:48:44.884Z,0.66
2023-03-04T00:51:11.569Z,0.66
2023-03-04T00:53:38.191Z,0.71
2023-03-04T00:56:05.268Z,0.67
2023-03-04T00:58:31.941Z,0.66
2023-03-04T01:00:58.601Z,0.59
2023-03-04T01:03:26.975Z,0.60
2023-03-04T01:05:53.766Z,0.61
2023-03-04T01:08:20.373Z,0.65
2023-03-04T01:10:48.600Z,0.64
2023-03-04T01:13:15.304Z,0.65
2023-03-04T01:15:41.890Z,0.71
2023-03-04T01:18:08.854Z,0.68
2023-03-04T01:20:35.532Z,0.74
2023-03-04T01:23:02.169Z,0.78
2023-03-04T01:25:30.325Z,0.77
2023-03-04T01:27:56.978Z,0.71
2023-03-04T01:30:23.579Z,0.70
2023-03-04T01:32:50.199Z,0.60
2023-03-04T01:35:16.949Z,0.66
2023-03-04T01:37:43.565Z,0.73
2023-03-04T01:40:11.236Z,0.67
2023-03-04T01:42:37.961Z,0.62
2023-03-04T01:45:06.319Z,0.69
2023-03-04T01:47:35.093Z,0.72
2023-03-04T01:50:04.690Z,0.74
2023-03-04T01:52:31.419Z,0.79
2023-03-04T01:54:58.290Z,0.83
2023-03-04T01:57:26.501Z,0.82
2023-03-04T02:00:20.940Z,0.86
2023-03-04T02:02:53.910Z,0.83
2023-03-04T02:05:22.554Z,0.79
2023-03-04T02:07:50.467Z,0.78
2023-03-04T02:10:17.547Z,0.76
2023-03-04T02:12:45.118Z,0.81
2023-03-04T02:15:12.470Z,0.86
2023-03-04T02:17:39.194Z,0.90
2023-03-04T02:20:20.999Z,0.93
2023-03-04T02:23:13.709Z,0.95
2023-03-04T02:26:11.561Z,0.92
2023-03-04T02:28:38.121Z,0.94
2023-03-04T02:31:05.310Z,0.94
2023-03-04T02:33:33.298Z,0.97
2023-03-04T02:35:59.971Z,0.99
2023-03-04T02:38:26.800Z,0.99
2023-03-04T02:40:56.090Z,0.98
2023-03-04T02:43:22.680Z,0.97
2023-03-04T02:45:52.374Z,0.98
2023-03-04T02:48:22.111Z,1.01
2023-03-04T02:50:52.424Z,1.03
2023-03-04T02:53:25.510Z,1.08
2023-03-04T02:55:52.253Z,1.14
2023-03-04T02:58:18.879Z,1.12
2023-03-04T03:00:45.534Z,1.11
2023-03-04T03:03:12.327Z,1.15
2023-03-04T03:05:39.475Z,1.15
2023-03-04T03:08:06.844Z,1.11
2023-03-04T03:10:33.879Z,1.09
2023-03-04T03:13:00.992Z,1.07
2023-03-04T03:15:27.617Z,1.07
2023-03-04T03:17:54.238Z,1.07
2023-03-04T03:20:21.003Z,1.09
2023-03-04T03:22:47.785Z,1.11
2023-03-04T03:25:15.443Z,1.14
2023-03-04T03:27:42.198Z,1.12
2023-03-04T03:30:13.406Z,1.14
2023-03-04T03:32:40.087Z,1.17
2023-03-04T03:35:06.916Z,1.17
2023-03-04T03:37:33.548Z,1.21
2023-03-04T03:40:00.290Z,1.20
2023-03-04T03:42:26.925Z,1.23
2023-03-04T03:44:53.566Z,1.22
2023-03-04T03:47:20.189Z,1.18
2023-03-04T03:49:46.845Z,1.20
2023-03-04T03:52:13.526Z,1.21
2023-03-04T03:54:40.113Z,1.22
2023-03-04T03:57:06.906Z,1.23
2023-03-04T03:59:33.595Z,1.28
2023-03-04T04:02:00.501Z,1.25
2023-03-04T04:04:27.216Z,1.28
2023-03-04T04:06:53.866Z,1.30
2023-03-04T04:09:20.557Z,1.33
2023-03-04T04:11:47.317Z,1.33
2023-03-04T04:14:14.668Z,1.37
2023-03-04T04:16:41.741Z,1.37
2023-03-04T04:19:09.555Z,1.42
2023-03-04T04:21:36.131Z,1.42
2023-03-04T04:24:02.720Z,1.45
2023-03-04T04:26:29.358Z,1.43
2023-03-04T04:28:56.004Z,1.40
2023-03-04T04:31:22.648Z,1.38
2023-03-04T04:33:49.325Z,1.40
2023-03-04T04:36:16.634Z,1.43
2023-03-04T04:38:43.987Z,1.41
2023-03-04T04:41:26.267Z,1.44
2023-03-04T04:43:53.298Z,1.50
2023-03-04T04:46:20.847Z,1.53
2023-03-04T04:48:47.803Z,1.53
2023-03-04T04:51:14.474Z,1.54
2023-03-04T04:53:41.454Z,1.59
2023-03-04T04:56:13.153Z,1.57
2023-03-04T04:58:40.100Z,1.54
2023-03-04T05:01:07.115Z,1.54
2023-03-04T05:03:35.564Z,1.54
2023-03-04T05:06:03.413Z,1.56
2023-03-04T05:08:30.125Z,1.61
2023-03-04T05:10:56.747Z,1.59
2023-03-04T05:13:23.926Z,1.60
2023-03-04T05:15:54.947Z,1.56
2023-03-04T05:18:23.748Z,1.60
2023-03-04T05:20:55.709Z,1.65
2023-03-04T05:23:22.857Z,1.67
2023-03-04T05:25:49.511Z,1.66
2023-03-04T05:28:16.857Z,1.66
2023-03-04T05:30:45.336Z,1.66
2023-03-04T05:33:14.080Z,1.69
2023-03-04T05:35:41.995Z,1.68
2023-03-04T05:38:11.493Z,1.69
2023-03-04T05:40:38.945Z,1.66
2023-03-04T05:43:05.787Z,1.62
2023-03-04T05:45:32.484Z,1.65
2023-03-04T05:47:59.512Z,1.69
2023-03-04T05:50:26.700Z,1.70
2023-03-04T05:52:53.615Z,1.69
2023-03-04T05:55:20.328Z,1.68
2023-03-04T05:57:47.657Z,1.75
2023-03-04T06:00:16.084Z,1.69
2023-03-04T06:02:43.937Z,1.69
2023-03-04T06:05:12.190Z,1.70
2023-03-04T06:07:39.030Z,1.73
2023-03-04T06:10:07.221Z,1.71
2023-03-04T06:12:34.423Z,1.70
2023-03-04T06:15:02.838Z,1.78
2023-03-04T06:17:30.224Z,1.77
2023-03-04T06:19:56.864Z,1.80
2023-03-04T06:22:23.705Z,1.86
2023-03-04T06:24:50.278Z,1.89
2023-03-04T06:27:17.056Z,1.88
2023-03-04T06:29:43.816Z,1.83
2023-03-04T06:32:10.692Z,1.87
2023-03-04T06:34:37.464Z,1.92
2023-03-04T06:37:04.171Z,1.93
2023-03-04T06:39:30.792Z,1.95
2023-03-04T06:41:57.487Z,1.98
2023-03-04T06:44:24.334Z,1.90
2023-03-04T06:46:51.067Z,1.95
2023-03-04T06:49:18.054Z,1.99
2023-03-04T06:51:44.597Z,1.99
2023-03-04T06:54:11.233Z,2.06
2023-03-04T06:56:37.840Z,2.11
2023-03-04T06:59:04.511Z,2.11
2023-03-04T07:01:31.130Z,2.14
2023-03-04T07:03:58.093Z,2.10
2023-03-04T07:06:30.024Z,2.15
2023-03-04T07:08:58.174Z,2.15
2023-03-04T07:11:25.582Z,2.14
2023-03-04T07:13:52.843Z,2.13
2023-03-04T07:16:22.179Z,2.17
2023-03-04T07:18:49.278Z,2.18
2023-03-04T07:21:16.777Z,2.22
2023-03-04T07:23:43.894Z,2.21
2023-03-04T07:26:10.576Z,2.20
2023-03-04T07:28:37.770Z,2.29
2023-03-04T07:31:13.773Z,2.26
2023-03-04T07:33:40.567Z,2.26
2023-03-04T07:36:07.382Z,2.31
2023-03-04T07:38:34.355Z,2.31
2023-03-04T07:41:01.199Z,2.32
2023-03-04T07:43:27.998Z,2.35
2023-03-04T07:45:59.643Z,2.36
2023-03-04T07:48:26.461Z,2.38
2023-03-04T07:51:11.739Z,2.38
2023-03-04T07:53:40.691Z,2.39
2023-03-04T07:56:09.083Z,2.40
2023-03-04T07:58:35.964Z,2.42
2023-03-04T08:01:09.498Z,2.41
2023-03-04T08:03:36.095Z,2.51
2023-03-04T08:06:05.842Z,2.56
2023-03-04T08:08:32.610Z,2.56
2023-03-04T08:10:59.251Z,2.61
2023-03-04T08:13:26.010Z,2.60
2023-03-04T08:15:52.726Z,2.61
2023-03-04T08:18:19.551Z,2.72
2023-03-04T08:20:46.230Z,2.76
2023-03-04T08:23:12.866Z,2.70
2023-03-04T08:25:41.224Z,2.76
2023-03-04T08:28:09.410Z,2.82
2023-03-04T08:30:36.868Z,2.88
2023-03-04T08:33:04.130Z,2.82
2023-03-04T08:35:31.507Z,2.88
2023-03-04T08:37:58.812Z,2.90
2023-03-04T08:40:27.256Z,3.01
2023-03-04T08:42:53.975Z,3.00
2023-03-04T08:45:20.679Z,2.93
2023-03-04T08:47:47.276Z,3.05
2023-03-04T08:50:13.990Z,3.07
2023-03-04T08:52:40.618Z,3.16
2023-03-04T08:55:07.568Z,3.27
2023-03-04T08:57:34.665Z,3.33
2023-03-04T09:00:01.737Z,3.38
2023-03-04T09:02:28.928Z,3.43
2023-03-04T09:04:55.550Z,3.52
2023-03-04T09:07:22.159Z,3.51
2023-03-04T09:09:48.787Z,3.70
2023-03-04T09:12:15.446Z,3.89
2023-03-04T09:14:42.205Z,3.86
2023-03-04T09:17:10.153Z,3.76
2023-03-04T09:19:37.062Z,3.78
2023-03-04T09:22:03.802Z,3.93
2023-03-04T09:24:30.426Z,3.83
2023-03-04T09:26:57.069Z,3.93
2023-03-04T09:29:23.758Z,4.09
2023-03-04T09:31:50.861Z,4.16
2023-03-04T09:34:17.755Z,4.14
2023-03-04T09:36:44.481Z,3.98
2023-03-04T09:39:11.171Z,4.10
2023-03-04T09:41:43.376Z,4.01
2023-03-04T09:44:32.346Z,4.13
2023-03-04T09:47:02.817Z,4.11
2023-03-04T09:49:31.140Z,4.17
2023-03-04T09:52:04.878Z,3.98
2023-03-04T09:54:34.273Z,4.06
2023-03-04T09:57:10.612Z,4.15
2023-03-04T09:59:45.665Z,4.26
2023-03-04T10:02:33.148Z,4.38
2023-03-04T10:05:03.513Z,4.32
2023-03-04T10:07:37.813Z,4.50
2023-03-04T10:10:10.500Z,4.65
2023-03-04T10:12:41.083Z,4.49
2023-03-04T10:15:22.902Z,4.65
2023-03-04T10:17:54.511Z,4.63
2023-03-04T10:20:27.589Z,4.63
2023-03-04T10:23:02.629Z,4.58
2023-03-04T10:25:32.668Z,4.47
2023-03-04T10:28:11.043Z,4.56
2023-03-04T10:30:53.459Z,4.62
2023-03-04T10:33:23.586Z,4.74
2023-03-04T10:36:19.265Z,4.78
2023-03-04T10:38:45.852Z,4.73
2023-03-04T10:41:22.674Z,4.63
2023-03-04T10:44:12.218Z,4.61
2023-03-04T10:46:44.764Z,4.75
2023-03-04T10:49:13.095Z,4.74
2023-03-04T10:52:04.593Z,4.67
2023-03-04T10:54:31.210Z,4.59
2023-03-04T10:57:14.847Z,4.82
2023-03-04T10:59:53.725Z,4.59
2023-03-04T11:02:34.837Z,4.68
2023-03-04T11:05:19.183Z,4.88
2023-03-04T11:07:55.662Z,4.95
2023-03-04T11:10:25.718Z,4.82
2023-03-04T11:12:56.577Z,4.75
2023-03-04T11:15:27.524Z,4.67
2023-03-04T11:18:06.163Z,4.71
2023-03-04T11:20:40.600Z,4.57
2023-03-04T11:23:36.125Z,4.69
2023-03-04T11:26:10.453Z,4.64
2023-03-04T11:28:46.790Z,4.90
2023-03-04T11:31:21.209Z,4.98
2023-03-04T11:33:55.932Z,5.11
2023-03-04T11:36:58.125Z,5.16
2023-03-04T11:39:34.783Z,4.96
2023-03-04T11:42:38.705Z,5.17
2023-03-04T11:45:27.749Z,5.11
2023-03-04T11:48:29.963Z,4.98
2023-03-04T11:51:23.013Z,4.97
2023-03-04T11:54:23.662Z,4.90
2023-03-04T11:57:04.905Z,4.82
2023-03-04T12:00:08.293Z,4.87
2023-03-04T12:02:44.766Z,5.01
2023-03-04T12:05:30.596Z,5.07
2023-03-04T12:07:57.328Z,4.93
2023-03-04T12:10:30.389Z,4.99
2023-03-04T12:13:42.097Z,4.76
2023-03-04T12:16:15.016Z,4.97
2023-03-04T12:19:10.899Z,4.81
2023-03-04T12:22:00.854Z,4.76
2023-03-04T12:24:53.855Z,4.82
2023-03-04T12:27:49.113Z,4.74
2023-03-04T12:30:45.689Z,4.61
2023-03-04T12:33:12.373Z,4.77
2023-03-04T12:35:47.234Z,4.73
2023-03-04T12:38:48.063Z,4.65
2023-03-04T12:41:45.156Z,4.60
2023-03-04T12:44:17.275Z,4.56
2023-03-04T12:46:52.788Z,4.62
2023-03-04T12:49:35.701Z,4.67
2023-03-04T12:52:25.160Z,4.78
2023-03-04T12:55:00.296Z,4.65
2023-03-04T12:57:32.124Z,4.59
2023-03-04T13:00:08.027Z,4.61
2023-03-04T13:02:37.752Z,4.53
2023-03-04T13:05:46.812Z,4.64
2023-03-04T13:08:35.530Z,4.69
2023-03-04T13:11:25.640Z,4.74
2023-03-04T13:14:06.956Z,4.82
2023-03-04T13:16:42.338Z,4.79
2023-03-04T13:19:46.737Z,4.92
2023-03-04T13:22:32.793Z,4.94
2023-03-04T13:25:21.244Z,4.92
2023-03-04T13:28:07.044Z,5.04
2023-03-04T13:30:34.490Z,5.17
2023-03-04T13:33:16.211Z,5.21
2023-03-04T13:35:54.945Z,5.20
2023-03-04T13:38:31.081Z,5.14
2023-03-04T13:41:00.743Z,5.21
2023-03-04T13:43:40.339Z,5.14
2023-03-04T13:46:24.217Z,5.08
2023-03-04T13:48:50.982Z,5.07
2023-03-04T13:51:41.528Z,5.20
2023-03-04T13:54:13.789Z,5.36
2023-03-04T13:56:41.196Z,5.39
2023-03-04T13:59:07.884Z,5.26
2023-03-04T14:01:45.161Z,5.38
2023-03-04T14:04:11.911Z,5.16
2023-03-04T14:06:43.859Z,5.27
2023-03-04T14:09:20.726Z,5.34
2023-03-04T14:11:48.877Z,5.37
2023-03-04T14:14:26.685Z,5.36
2023-03-04T14:16:57.919Z,5.41
2023-03-04T14:19:38.506Z,5.37
2023-03-04T14:22:43.532Z,5.44
2023-03-04T14:25:19.021Z,5.47
2023-03-04T14:27:46.633Z,5.56
2023-03-04T14:30:39.112Z,5.52
2023-03-04T14:33:12.166Z,5.40
2023-03-04T14:35:39.174Z,5.32
2023-03-04T14:38:33.838Z,5.22
2023-03-04T14:41:09.954Z,5.14
2023-03-04T14:43:42.329Z,5.19
2023-03-04T14:46:15.683Z,5.31
2023-03-04T14:48:49.508Z,5.29
2023-03-04T14:51:48.275Z,5.24
2023-03-04T14:54:37.255Z,5.17
2023-03-04T14:57:21.092Z,5.13
2023-03-04T14:59:48.004Z,5.13
2023-03-04T15:02:39.072Z,5.07
2023-03-04T15:05:26.610Z,5.00
2023-03-04T15:08:18.941Z,5.12
2023-03-04T15:11:04.095Z,5.15
2023-03-04T15:13:57.874Z,5.06
2023-03-04T15:16:27.774Z,5.06
2023-03-04T15:19:23.506Z,5.04
2023-03-04T15:21:50.198Z,5.06
2023-03-04T15:24:16.832Z,5.15
2023-03-04T15:26:45.994Z,5.10
2023-03-04T15:29:15.810Z,5.14
2023-03-04T15:31:43.785Z,5.09
2023-03-04T15:34:17.836Z,5.05
2023-03-04T15:36:47.087Z,4.93
2023-03-04T15:39:15.573Z,4.79
2023-03-04T15:41:42.789Z,4.77
2023-03-04T15:44:10.337Z,4.86
2023-03-04T15:46:37.677Z,4.81
2023-03-04T15:49:04.554Z,4.91
2023-03-04T15:51:31.308Z,4.92
2023-03-04T15:54:00.126Z,4.93
2023-03-04T15:56:29.620Z,4.78
2023-03-04T15:58:57.743Z,4.68
2023-03-04T16:01:25.192Z,4.68
2023-03-04T16:03:53.809Z,4.69
2023-03-04T16:06:24.499Z,4.71
2023-03-04T16:08:52.344Z,4.56
2023-03-04T16:11:21.881Z,4.64
2023-03-04T16:13:49.358Z,4.55
2023-03-04T16:16:16.694Z,4.58
2023-03-04T16:18:43.649Z,4.56
2023-03-04T16:21:14.560Z,4.60
2023-03-04T16:23:43.756Z,4.64
2023-03-04T16:26:17.349Z,4.51
2023-03-04T16:28:44.140Z,4.45
2023-03-04T16:31:12.133Z,4.41
2023-03-04T16:33:38.959Z,4.41
2023-03-04T16:36:14.530Z,4.33
2023-03-04T16:38:42.025Z,4.22
2023-03-04T16:41:13.261Z,4.20
2023-03-04T16:43:41.191Z,4.16
2023-03-04T16:46:08.079Z,4.15
2023-03-04T16:48:35.302Z,4.09
2023-03-04T16:51:05.290Z,4.13
2023-03-04T16:53:38.490Z,4.13
2023-03-04T16:56:10.776Z,4.17
2023-03-04T16:58:37.541Z,4.15
2023-03-04T17:01:04.468Z,4.12
2023-03-04T17:03:31.899Z,4.15
2023-03-04T17:05:58.862Z,4.18
2023-03-04T17:08:25.668Z,4.20
2023-03-04T17:10:52.668Z,4.19
2023-03-04T17:13:19.377Z,4.18
2023-03-04T17:15:46.994Z,4.15
2023-03-04T17:18:13.902Z,4.12
2023-03-04T17:20:40.729Z,4.17
2023-03-04T17:23:07.491Z,4.21
2023-03-04T17:25:34.131Z,4.20
2023-03-04T17:28:00.873Z,4.19
2023-03-04T17:30:28.657Z,4.10
2023-03-04T17:32:55.303Z,4.02
2023-03-04T17:35:22.484Z,4.05
2023-03-04T17:37:49.232Z,4.01
2023-03-04T17:40:16.144Z,4.00
2023-03-04T17:42:46.108Z,3.95
2023-03-04T17:45:12.878Z,3.96
2023-03-04T17:47:39.611Z,3.94
2023-03-04T17:50:07.974Z,3.96
2023-03-04T17:52:34.624Z,4.00
2023-03-04T17:55:01.377Z,4.00
2023-03-04T17:57:28.122Z,3.87
2023-03-04T17:59:56.203Z,3.80
2023-03-04T18:02:22.906Z,3.71
2023-03-04T18:04:50.428Z,3.77
2023-03-04T18:07:17.100Z,3.81
2023-03-04T18:09:44.618Z,3.78
2023-03-04T18:12:11.554Z,3.79
2023-03-04T18:14:38.264Z,3.72
2023-03-04T18:17:05.010Z,3.75
2023-03-04T18:19:31.929Z,3.62
2023-03-04T18:22:02.618Z,3.60
2023-03-04T18:24:29.306Z,3.57
2023-03-04T18:26:56.998Z,3.62
2023-03-04T18:29:23.851Z,3.61
2023-03-04T18:31:50.611Z,3.64
2023-03-04T18:34:17.492Z,3.56
2023-03-04T18:36:44.496Z,3.56
2023-03-04T18:39:11.692Z,3.51
2023-03-04T18:41:38.880Z,3.48
2023-03-04T18:44:06.199Z,3.48
2023-03-04T18:46:50.634Z,3.53
2023-03-04T18:49:19.395Z,3.48
2023-03-04T18:51:46.129Z,3.49
2023-03-04T18:54:13.006Z,3.51
2023-03-04T18:57:03.118Z,3.46
2023-03-04T18:59:42.688Z,3.45
2023-03-04T19:02:42.075Z,3.41
2023-03-04T19:05:13.043Z,3.41
2023-03-04T19:07:39.740Z,3.43
2023-03-04T19:10:06.968Z,3.43
2023-03-04T19:12:34.056Z,3.40
2023-03-04T19:15:00.891Z,3.39
2023-03-04T19:17:31.842Z,3.36
2023-03-04T19:19:59.608Z,3.34
2023-03-04T19:22:26.395Z,3.31
2023-03-04T19:24:53.588Z,3.25
2023-03-04T19:27:20.532Z,3.20
2023-03-04T19:29:48.296Z,3.18
2023-03-04T19:32:17.531Z,3.08
2023-03-04T19:34:45.362Z,2.98
2023-03-04T19:37:13.109Z,3.01
2023-03-04T19:39:40.566Z,2.98
2023-03-04T19:42:11.305Z,2.92
2023-03-04T19:44:38.700Z,2.95
2023-03-04T19:47:07.119Z,2.93
2023-03-04T19:49:34.656Z,2.89
2023-03-04T19:52:02.193Z,2.91
2023-03-04T19:54:30.030Z,2.89
2023-03-04T19:56:58.401Z,2.90
2023-03-04T19:59:25.396Z,2.89
2023-03-04T20:01:52.191Z,2.89
2023-03-04T20:04:21.041Z,2.89
2023-03-04T20:06:50.131Z,2.87
2023-03-04T20:09:17.860Z,2.84
2023-03-04T20:11:57.806Z,2.85
2023-03-04T20:14:27.437Z,2.76
2023-03-04T20:16:54.172Z,2.74
2023-03-04T20:19:20.794Z,2.69
2023-03-04T20:21:47.425Z,2.68
2023-03-04T20:24:15.170Z,2.63
2023-03-04T20:26:41.965Z,2.64
2023-03-04T20:29:08.615Z,2.62
2023-03-04T20:31:38.457Z,2.68
2023-03-04T20:34:07.101Z,2.64
2023-03-04T20:36:34.766Z,2.56
2023-03-04T20:39:04.208Z,2.59
2023-03-04T20:41:34.803Z,2.61
2023-03-04T20:44:01.664Z,2.57
2023-03-04T20:46:41.262Z,2.61
2023-03-04T20:49:14.042Z,2.59
2023-03-04T20:51:40.808Z,2.54
2023-03-04T20:54:08.657Z,2.55
2023-03-04T20:56:36.939Z,2.50
2023-03-04T20:59:05.523Z,2.48
2023-03-04T21:01:32.671Z,2.49
2023-03-04T21:04:00.150Z,2.48
2023-03-04T21:06:31.741Z,2.49
2023-03-04T21:09:04.396Z,2.48
2023-03-04T21:11:31.123Z,2.50
2023-03-04T21:13:57.856Z,2.49
2023-03-04T21:16:27.208Z,2.48
2023-03-04T21:18:53.891Z,2.44
2023-03-04T21:21:24.479Z,2.43
2023-03-04T21:23:53.396Z,2.44
2023-03-04T21:26:22.113Z,2.46
2023-03-04T21:28:49.642Z,2.44
2023-03-04T21:31:23.118Z,2.46
2023-03-04T21:33:51.524Z,2.45
2023-03-04T21:36:18.214Z,2.43
2023-03-04T21:38:45.840Z,2.40
2023-03-04T21:41:17.296Z,2.37
2023-03-04T21:43:44.303Z,2.37
2023-03-04T21:46:13.276Z,2.33
2023-03-04T21:48:40.811Z,2.33
2023-03-04T21:51:09.035Z,2.35
2023-03-04T21:53:36.430Z,2.35
2023-03-04T21:56:04.378Z,2.36
2023-03-04T21:58:31.271Z,2.35
2023-03-04T22:00:59.080Z,2.34
2023-03-04T22:03:27.190Z,2.32
2023-03-04T22:05:53.841Z,2.31
2023-03-04T22:08:21.248Z,2.29
2023-03-04T22:10:47.980Z,2.31
2023-03-04T22:13:15.810Z,2.30
2023-03-04T22:15:44.492Z,2.29
2023-03-04T22:18:13.370Z,2.31
2023-03-04T22:20:43.412Z,2.32
2023-03-04T22:23:10.564Z,2.34
2023-03-04T22:25:39.707Z,2.28
2023-03-04T22:28:07.276Z,2.29
2023-03-04T22:30:35.981Z,2.26
2023-03-04T22:33:03.154Z,2.23
2023-03-04T22:35:29.941Z,2.17
2023-03-04T22:37:57.718Z,2.20
2023-03-04T22:40:24.865Z,2.22
2023-03-04T22:42:51.672Z,2.19
2023-03-04T22:45:19.049Z,2.14
2023-03-04T22:47:50.631Z,2.17
2023-03-04T22:50:19.260Z,2.18
2023-03-04T22:52:47.389Z,2.13
2023-03-04T22:55:19.836Z,2.16
2023-03-04T22:57:46.800Z,2.12
2023-03-04T23:00:21.231Z,2.08
2023-03-04T23:02:48.279Z,2.09
2023-03-04T23:05:15.052Z,2.08
2023-03-04T23:07:42.310Z,2.07
2023-03-04T23:10:13.357Z,2.11
2023-03-04T23:12:40.295Z,2.09
2023-03-04T23:15:08.212Z,2.00
2023-03-04T23:17:34.909Z,2.00
2023-03-04T23:20:01.838Z,2.03
2023-03-04T23:22:28.468Z,2.05
2023-03-04T23:24:57.455Z,2.03
2023-03-04T23:27:24.925Z,2.04
2023-03-04T23:29:52.172Z,2.03
2023-03-04T23:32:18.774Z,1.99
2023-03-04T23:34:45.466Z,2.01
2023-03-04T23:37:12.127Z,2.05
2023-03-04T23:39:38.833Z,2.05
2023-03-04T23:42:05.588Z,2.04
2023-03-04T23:44:32.206Z,2.03
2023-03-04T23:46:58.784Z,2.07
2023-03-04T23:49:25.420Z,2.06
2023-03-04T23:51:52.019Z,2.07
2023-03-04T23:54:18.722Z,2.05
2023-03-04T23:56:45.303Z,1.99
2023-03-04T23:59:12.408Z,1.95
